Terminal Aerodrome Forecast
Issued by NWS

Home | Current Version | Previous Version | Text Only | Print | Product List | Glossary On
Versions: 1 2 3 4 5 6 7 8 9 10 11 12 13 14 15 16
000
FTUS44 KTSA 201700
TAFMLC
TAF
KMLC 201737Z 2018/2118 19007KT P6SM BKN040
     FM210100 14002KT P6SM SCT250
     FM211700 35007KT P6SM SCT040=

USA.gov is the U.S. government's official web portal to all federal, state and local government web resources and services.